createdAt,value
2018-01-27T00:00:34.000Z,0
2018-01-27T00:01:48.182Z,0
2018-01-27T00:02:34.344Z,0
2018-01-27T00:03:33.532Z,0
2018-01-27T00:04:34.232Z,0
2018-01-27T00:05:33.839Z,0
2018-01-27T00:06:34.111Z,0
2018-01-27T00:07:48.950Z,0
2018-01-27T00:08:33.647Z,0
2018-01-27T00:09:34.143Z,0
2018-01-27T00:10:34.309Z,0
2018-01-27T00:11:34.204Z,0
2018-01-27T00:12:34.199Z,0
2018-01-27T00:13:34.390Z,0
2018-01-27T00:14:34.379Z,0
2018-01-27T00:15:34.266Z,0
2018-01-27T00:16:34.302Z,0
2018-01-27T00:17:33.808Z,0
2018-01-27T00:18:34.417Z,0
2018-01-27T00:19:34.078Z,0
2018-01-27T00:20:34.499Z,0
2018-01-27T00:21:34.357Z,0
2018-01-27T00:22:48.899Z,0
2018-01-27T00:23:34.404Z,0
2018-01-27T00:24:34.418Z,0
2018-01-27T00:25:34.413Z,0
2018-01-27T00:26:34.217Z,0
2018-01-27T00:27:34.305Z,0
2018-01-27T00:28:34.699Z,0
2018-01-27T00:29:34.272Z,0
2018-01-27T00:30:34.545Z,0
2018-01-27T00:31:34.556Z,0
2018-01-27T00:32:34.584Z,0
2018-01-27T00:33:34.855Z,0
2018-01-27T00:34:34.761Z,0
2018-01-27T00:35:34.639Z,0
2018-01-27T00:36:34.624Z,0
2018-01-27T00:37:34.821Z,0
2018-01-27T00:38:34.629Z,0
2018-01-27T00:40:34.707Z,0
2018-01-27T00:41:34.893Z,0
2018-01-27T00:42:34.242Z,0
2018-01-27T00:43:34.521Z,0
2018-01-27T00:44:34.775Z,0
2018-01-27T00:45:34.386Z,0
2018-01-27T00:46:34.974Z,0
2018-01-27T00:47:34.586Z,0
2018-01-27T00:48:34.830Z,0
2018-01-27T00:49:35.034Z,0
2018-01-27T00:51:34.659Z,0
2018-01-27T00:52:34.946Z,0
2018-01-27T00:53:34.957Z,0
2018-01-27T00:54:49.627Z,0
2018-01-27T00:55:34.999Z,0
2018-01-27T00:56:34.746Z,0
2018-01-27T00:57:35.188Z,0
2018-01-27T00:58:49.863Z,0
2018-01-27T00:59:34.790Z,0
2018-01-27T01:00:49.750Z,0
2018-01-27T01:01:35.093Z,0
2018-01-27T01:03:35.141Z,0
2018-01-27T01:04:35.008Z,0
2018-01-27T01:05:35.177Z,0
2018-01-27T01:06:35.187Z,0
2018-01-27T01:07:50.021Z,0
2018-01-27T01:08:49.785Z,0
2018-01-27T01:09:35.379Z,0
2018-01-27T01:10:49.928Z,0
2018-01-27T01:11:34.761Z,0
2018-01-27T01:12:35.057Z,0
2018-01-27T01:13:50.085Z,0
2018-01-27T01:14:35.268Z,0
2018-01-27T01:15:34.835Z,0
2018-01-27T01:16:35.350Z,0
2018-01-27T01:17:50.069Z,0
2018-01-27T01:18:35.454Z,0
2018-01-27T01:19:35.550Z,0
2018-01-27T01:20:35.443Z,0
2018-01-27T01:21:35.537Z,0
2018-01-27T01:22:35.629Z,0
2018-01-27T01:23:35.483Z,0
2018-01-27T01:24:35.652Z,0
2018-01-27T01:25:35.284Z,0
2018-01-27T01:26:50.123Z,0
2018-01-27T01:27:35.715Z,0
2018-01-27T01:28:35.063Z,0
2018-01-27T01:30:35.338Z,0
2018-01-27T01:31:35.388Z,0
2018-01-27T01:32:35.436Z,0
2018-01-27T01:33:35.411Z,0
2018-01-27T01:34:35.440Z,0
2018-01-27T01:35:50.372Z,0
2018-01-27T01:36:35.720Z,0
2018-01-27T01:37:35.879Z,0
2018-01-27T01:38:50.444Z,0
2018-01-27T01:39:35.784Z,0
2018-01-27T01:40:50.217Z,0
2018-01-27T01:41:35.839Z,0
2018-01-27T01:42:50.508Z,0
2018-01-27T01:43:35.844Z,0
2018-01-27T01:44:35.707Z,0
2018-01-27T01:45:35.909Z,0
2018-01-27T01:46:36.017Z,0
2018-01-27T01:47:36.071Z,0
2018-01-27T01:48:35.953Z,0
2018-01-27T01:49:35.932Z,0
2018-01-27T01:50:36.171Z,0
2018-01-27T01:51:36.075Z,0
2018-01-27T01:52:50.424Z,0
2018-01-27T01:53:50.712Z,0
2018-01-27T01:54:36.042Z,0
2018-01-27T01:55:35.822Z,0
2018-01-27T01:56:36.231Z,0
2018-01-27T01:57:50.868Z,0
2018-01-27T01:58:36.228Z,0
2018-01-27T02:00:36.317Z,0
2018-01-27T02:01:35.922Z,0
2018-01-27T02:02:50.610Z,0
2018-01-27T02:03:36.314Z,0
2018-01-27T02:04:36.239Z,0
2018-01-27T02:05:36.255Z,0
2018-01-27T02:06:50.678Z,0
2018-01-27T02:07:36.286Z,0
2018-01-27T02:08:36.322Z,0
2018-01-27T02:09:36.410Z,0
2018-01-27T02:10:51.169Z,0
2018-01-27T02:11:36.117Z,0
2018-01-27T02:12:51.196Z,0
2018-01-27T02:13:36.477Z,0
2018-01-27T02:14:36.493Z,0
2018-01-27T02:15:36.436Z,0
2018-01-27T02:16:36.203Z,0
2018-01-27T02:17:36.623Z,0
2018-01-27T02:18:36.387Z,0
2018-01-27T02:19:36.468Z,0
2018-01-27T02:20:36.505Z,0
2018-01-27T02:21:36.269Z,0
2018-01-27T02:23:36.577Z,0
2018-01-27T02:24:51.355Z,0
2018-01-27T02:25:36.359Z,0
2018-01-27T02:26:36.262Z,0
2018-01-27T02:27:51.286Z,0
2018-01-27T02:28:36.657Z,0
2018-01-27T02:29:51.348Z,0
2018-01-27T02:30:36.805Z,0
2018-01-27T02:31:36.880Z,0
2018-01-27T02:32:36.468Z,0
2018-01-27T02:33:51.424Z,0
2018-01-27T02:34:36.753Z,0
2018-01-27T02:35:36.683Z,0
2018-01-27T02:36:36.954Z,0
2018-01-27T02:37:36.829Z,0
2018-01-27T02:38:36.845Z,0
2018-01-27T02:39:51.524Z,0
2018-01-27T02:40:36.874Z,0
2018-01-27T02:41:36.633Z,0
2018-01-27T02:42:51.594Z,0
2018-01-27T02:43:36.669Z,0
2018-01-27T02:44:51.760Z,0
2018-01-27T02:45:51.870Z,0
2018-01-27T02:46:36.988Z,0
2018-01-27T02:47:37.020Z,0
2018-01-27T02:48:36.759Z,0
2018-01-27T02:49:37.175Z,0
2018-01-27T02:50:36.818Z,0
2018-01-27T02:51:36.541Z,0
2018-01-27T02:52:37.277Z,0
2018-01-27T02:53:37.259Z,0
2018-01-27T02:54:51.790Z,0
2018-01-27T02:55:37.159Z,0
2018-01-27T02:56:36.923Z,0
2018-01-27T02:57:37.166Z,0
2018-01-27T02:58:37.166Z,0
2018-01-27T02:59:36.954Z,0
2018-01-27T03:00:36.713Z,0
2018-01-27T03:01:51.917Z,0
2018-01-27T03:02:37.237Z,0
2018-01-27T03:03:37.439Z,0
2018-01-27T03:04:37.018Z,0
2018-01-27T03:05:51.981Z,0
2018-01-27T03:06:37.324Z,0
2018-01-27T03:07:37.497Z,0
2018-01-27T03:08:37.212Z,0
2018-01-27T03:09:52.156Z,0
2018-01-27T03:10:37.399Z,0
2018-01-27T03:11:37.325Z,0
2018-01-27T03:12:37.448Z,0
2018-01-27T03:14:37.216Z,0
2018-01-27T03:15:37.491Z,0
2018-01-27T03:16:51.915Z,0
2018-01-27T03:17:52.420Z,0
2018-01-27T03:18:37.689Z,0
2018-01-27T03:19:37.682Z,0
2018-01-27T03:20:37.579Z,0
2018-01-27T03:21:37.610Z,0
2018-01-27T03:22:37.619Z,0
2018-01-27T03:23:37.647Z,0
2018-01-27T03:24:37.536Z,0
2018-01-27T03:25:37.327Z,0
2018-01-27T03:26:37.692Z,0
2018-01-27T03:27:52.370Z,0
2018-01-27T03:28:37.722Z,0
2018-01-27T03:29:37.584Z,0
2018-01-27T03:30:52.181Z,0
2018-01-27T03:31:37.261Z,0
2018-01-27T03:32:52.216Z,0
2018-01-27T03:33:37.821Z,0
2018-01-27T03:34:37.690Z,0
2018-01-27T03:35:37.856Z,0
2018-01-27T03:36:37.603Z,0
2018-01-27T03:37:37.615Z,0
2018-01-27T03:38:52.319Z,0
2018-01-27T03:39:37.649Z,0
2018-01-27T03:40:37.679Z,0
2018-01-27T03:41:37.852Z,0
2018-01-27T03:42:37.468Z,0
2018-01-27T03:43:37.998Z,0
2018-01-27T03:44:38.142Z,0
2018-01-27T03:45:37.764Z,0
2018-01-27T03:46:38.194Z,0
2018-01-27T03:47:38.043Z,0
2018-01-27T03:48:38.238Z,0
2018-01-27T03:49:52.528Z,0
2018-01-27T03:50:38.209Z,0
2018-01-27T03:51:38.036Z,0
2018-01-27T03:52:38.156Z,0
2018-01-27T03:53:37.662Z,0
2018-01-27T03:54:38.278Z,0
2018-01-27T03:55:38.208Z,0
2018-01-27T03:56:38.222Z,0
2018-01-27T03:57:37.995Z,0
2018-01-27T03:58:38.000Z,0
2018-01-27T03:59:38.291Z,0
2018-01-27T04:00:52.960Z,0
2018-01-27T04:01:38.325Z,0
2018-01-27T04:02:38.338Z,0
2018-01-27T04:03:37.839Z,0
2018-01-27T04:04:53.187Z,0
2018-01-27T04:05:38.219Z,0
2018-01-27T04:06:38.139Z,0
2018-01-27T04:07:52.829Z,0
2018-01-27T04:08:38.202Z,0
2018-01-27T04:09:38.456Z,0
2018-01-27T04:10:38.547Z,0
2018-01-27T04:11:38.631Z,0
2018-01-27T04:12:52.904Z,0
2018-01-27T04:13:38.638Z,0
2018-01-27T04:14:38.285Z,0
2018-01-27T04:15:38.554Z,0
2018-01-27T04:16:53.403Z,0
2018-01-27T04:17:38.703Z,0
2018-01-27T04:18:38.371Z,0
2018-01-27T04:19:38.725Z,0
2018-01-27T04:20:53.072Z,0
2018-01-27T04:21:38.590Z,0
2018-01-27T04:22:38.597Z,0
2018-01-27T04:23:38.205Z,0
2018-01-27T04:24:38.733Z,0
2018-01-27T04:25:38.487Z,0
2018-01-27T04:27:38.908Z,0
2018-01-27T04:28:38.280Z,0
2018-01-27T04:29:38.551Z,0
2018-01-27T04:30:38.824Z,0
2018-01-27T04:31:38.938Z,0
2018-01-27T04:32:38.710Z,0
2018-01-27T04:33:38.777Z,0
2018-01-27T04:34:38.897Z,0
2018-01-27T04:35:53.586Z,0
2018-01-27T04:36:53.360Z,0
2018-01-27T04:37:38.453Z,0
2018-01-27T04:38:39.123Z,0
2018-01-27T04:39:38.733Z,0
2018-01-27T04:40:38.992Z,0
2018-01-27T04:41:38.964Z,0
2018-01-27T04:42:53.726Z,0
2018-01-27T04:43:39.059Z,0
2018-01-27T04:44:38.807Z,0
2018-01-27T04:45:39.094Z,0
2018-01-27T04:47:38.867Z,0
2018-01-27T04:48:39.314Z,0
2018-01-27T04:49:38.642Z,0
2018-01-27T04:50:38.928Z,0
2018-01-27T04:51:53.875Z,0
2018-01-27T04:52:54.055Z,0
2018-01-27T04:53:39.252Z,0
2018-01-27T04:54:39.262Z,0
2018-01-27T04:55:39.265Z,0
2018-01-27T04:56:39.038Z,0
2018-01-27T04:57:39.127Z,0
2018-01-27T04:58:39.333Z,0
2018-01-27T04:59:39.381Z,0
2018-01-27T05:00:39.105Z,0
2018-01-27T05:04:39.338Z,0
2018-01-27T05:06:39.204Z,0
2018-01-27T05:07:54.150Z,0
2018-01-27T05:09:39.350Z,0
2018-01-27T05:10:39.710Z,0
2018-01-27T05:11:39.304Z,0
2018-01-27T05:12:39.566Z,0
2018-01-27T05:13:39.595Z,0
2018-01-27T05:15:39.787Z,0
2018-01-27T05:16:39.629Z,0
2018-01-27T05:17:39.673Z,0
2018-01-27T05:18:54.344Z,0
2018-01-27T05:19:39.432Z,0
2018-01-27T05:20:39.707Z,0
2018-01-27T05:21:39.826Z,0
2018-01-27T05:22:39.506Z,0
2018-01-27T05:23:39.651Z,0
2018-01-27T05:24:39.774Z,0
2018-01-27T05:25:39.808Z,0
2018-01-27T05:26:39.650Z,0
2018-01-27T05:27:39.849Z,0
2018-01-27T05:28:39.737Z,0
2018-01-27T05:29:39.875Z,0
2018-01-27T05:30:39.868Z,0
2018-01-27T05:31:39.658Z,0
2018-01-27T05:32:40.006Z,0
2018-01-27T05:33:39.436Z,0
2018-01-27T05:34:40.116Z,0
2018-01-27T05:35:40.073Z,0
2018-01-27T05:36:54.651Z,0
2018-01-27T05:37:39.930Z,0
2018-01-27T05:38:39.776Z,0
2018-01-27T05:39:54.713Z,0
2018-01-27T05:40:40.200Z,0
2018-01-27T05:41:40.232Z,0
2018-01-27T05:42:40.080Z,0
2018-01-27T05:43:40.002Z,0
2018-01-27T05:44:39.941Z,0
2018-01-27T05:45:54.801Z,0
2018-01-27T05:46:54.987Z,0
2018-01-27T05:47:54.854Z,0
2018-01-27T05:48:54.869Z,0
2018-01-27T05:49:55.045Z,0
2018-01-27T05:50:40.232Z,0
2018-01-27T05:51:39.892Z,0
2018-01-27T05:52:40.274Z,0
2018-01-27T05:53:40.298Z,0
2018-01-27T05:54:40.489Z,0
2018-01-27T05:55:55.104Z,0
2018-01-27T05:56:39.835Z,0
2018-01-27T05:57:40.364Z,0
2018-01-27T05:58:40.138Z,0
2018-01-27T05:59:40.287Z,0
2018-01-27T06:00:40.401Z,0
2018-01-27T06:01:55.006Z,0
2018-01-27T06:02:40.474Z,0
2018-01-27T06:03:40.194Z,0
2018-01-27T06:04:40.229Z,0
2018-01-27T06:05:40.491Z,0
2018-01-27T06:07:55.345Z,0
2018-01-27T06:08:40.575Z,0
2018-01-27T06:09:40.320Z,0
2018-01-27T06:10:55.245Z,0
2018-01-27T06:11:55.292Z,0
2018-01-27T06:12:40.857Z,0
2018-01-27T06:13:40.648Z,0
2018-01-27T06:14:40.645Z,0
2018-01-27T06:15:40.677Z,0
2018-01-27T06:16:40.836Z,0
2018-01-27T06:17:40.603Z,0
2018-01-27T06:18:40.481Z,0
2018-01-27T06:20:40.750Z,0
2018-01-27T06:21:40.684Z,0
2018-01-27T06:22:40.942Z,0
2018-01-27T06:23:40.660Z,0
2018-01-27T06:24:55.590Z,0
2018-01-27T06:25:40.871Z,0
2018-01-27T06:26:40.870Z,0
2018-01-27T06:27:55.561Z,0
2018-01-27T06:28:40.766Z,0
2018-01-27T06:29:55.587Z,0
2018-01-27T06:30:40.682Z,0
2018-01-27T06:31:40.957Z,4
2018-01-27T06:32:41.137Z,4
2018-01-27T06:33:40.916Z,0
2018-01-27T06:34:55.792Z,4
2018-01-27T06:35:40.788Z,4
2018-01-27T06:36:41.036Z,8
2018-01-27T06:37:41.210Z,4
2018-01-27T06:38:40.907Z,8
2018-01-27T06:39:41.148Z,8
2018-01-27T06:40:40.935Z,8
2018-01-27T06:41:40.890Z,12
2018-01-27T06:42:55.550Z,12
2018-01-27T06:43:41.317Z,12
2018-01-27T06:44:41.200Z,12
2018-01-27T06:46:41.066Z,16
2018-01-27T06:47:40.993Z,16
2018-01-27T06:48:41.243Z,20
2018-01-27T06:49:41.270Z,20
2018-01-27T06:50:41.281Z,24
2018-01-27T06:51:41.215Z,24
2018-01-27T06:52:41.062Z,28
2018-01-27T06:53:41.091Z,28
2018-01-27T06:54:41.505Z,32
2018-01-27T06:55:41.477Z,36
2018-01-27T06:56:41.597Z,40
2018-01-27T06:57:41.414Z,44
2018-01-27T06:58:41.410Z,48
2018-01-27T06:59:41.534Z,52
2018-01-27T07:01:41.368Z,64
2018-01-27T07:02:40.998Z,72
2018-01-27T07:03:41.503Z,72
2018-01-27T07:04:41.642Z,76
2018-01-27T07:05:41.645Z,72
2018-01-27T07:06:41.312Z,80
2018-01-27T07:07:56.250Z,84
2018-01-27T07:08:41.099Z,76
2018-01-27T07:09:41.731Z,72
2018-01-27T07:10:41.736Z,80
2018-01-27T07:11:41.662Z,88
2018-01-27T07:12:41.585Z,100
2018-01-27T07:13:41.449Z,116
2018-01-27T07:14:56.423Z,124
2018-01-27T07:15:41.736Z,132
2018-01-27T07:16:41.666Z,144
2018-01-27T07:17:41.487Z,148
2018-01-27T07:18:56.464Z,148
2018-01-27T07:19:41.793Z,164
2018-01-27T07:20:56.476Z,188
2018-01-27T07:21:41.730Z,180
2018-01-27T07:22:41.590Z,180
2018-01-27T07:23:42.032Z,220
2018-01-27T07:24:41.538Z,244
2018-01-27T07:25:41.648Z,264
2018-01-27T07:26:56.357Z,276
2018-01-27T07:27:41.929Z,280
2018-01-27T07:28:41.971Z,296
2018-01-27T07:29:42.244Z,312
2018-01-27T07:30:56.663Z,320
2018-01-27T07:31:41.757Z,320
2018-01-27T07:32:41.773Z,324
2018-01-27T07:33:41.802Z,312
2018-01-27T07:34:42.052Z,296
2018-01-27T07:35:42.245Z,300
2018-01-27T07:36:41.577Z,332
2018-01-27T07:37:42.126Z,372
2018-01-27T07:38:42.137Z,384
2018-01-27T07:39:41.913Z,384
2018-01-27T07:40:42.078Z,420
2018-01-27T07:41:41.943Z,456
2018-01-27T07:42:56.883Z,460
2018-01-27T07:43:41.967Z,444
2018-01-27T07:45:42.393Z,496
2018-01-27T07:46:56.947Z,528
2018-01-27T07:47:42.281Z,520
2018-01-27T07:48:42.053Z,492
2018-01-27T07:49:42.060Z,476
2018-01-27T07:50:42.111Z,500
2018-01-27T07:51:57.291Z,560
2018-01-27T07:52:42.440Z,568
2018-01-27T07:53:42.390Z,540
2018-01-27T07:54:42.165Z,584
2018-01-27T07:55:42.439Z,612
2018-01-27T07:56:42.454Z,644
2018-01-27T07:57:42.609Z,672
2018-01-27T07:58:57.186Z,688
2018-01-27T07:59:57.333Z,696
2018-01-27T08:00:42.016Z,696
2018-01-27T08:01:42.539Z,700
2018-01-27T08:02:57.212Z,740
2018-01-27T08:03:42.688Z,784
2018-01-27T08:04:42.329Z,776
2018-01-27T08:05:42.753Z,812
2018-01-27T08:06:42.350Z,808
2018-01-27T08:07:42.638Z,756
2018-01-27T08:08:42.808Z,740
2018-01-27T08:09:42.447Z,724
2018-01-27T08:10:42.709Z,756
2018-01-27T08:11:42.461Z,808
2018-01-27T08:12:42.946Z,824
2018-01-27T08:14:57.631Z,852
2018-01-27T08:15:42.931Z,860
2018-01-27T08:16:42.805Z,852
2018-01-27T08:17:57.496Z,916
2018-01-27T08:18:42.344Z,976
2018-01-27T08:19:42.900Z,1016
2018-01-27T08:20:42.872Z,1076
2018-01-27T08:21:42.906Z,992
2018-01-27T08:22:42.919Z,1108
2018-01-27T08:23:42.917Z,1216
2018-01-27T08:24:42.691Z,1276
2018-01-27T08:25:43.046Z,1180
2018-01-27T08:26:57.406Z,1204
2018-01-27T08:27:43.143Z,1212
2018-01-27T08:28:43.031Z,1268
2018-01-27T08:29:57.704Z,1292
2018-01-27T08:30:57.839Z,1420
2018-01-27T08:31:42.968Z,1516
2018-01-27T08:32:43.085Z,1576
2018-01-27T08:33:43.262Z,1600
2018-01-27T08:34:43.097Z,1652
2018-01-27T08:35:57.907Z,1596
2018-01-27T08:36:43.226Z,1640
2018-01-27T08:38:42.948Z,1700
2018-01-27T08:39:42.950Z,1744
2018-01-27T08:40:43.230Z,1932
2018-01-27T08:41:43.383Z,2048
2018-01-27T08:42:43.353Z,2140
2018-01-27T08:43:43.275Z,2236
2018-01-27T08:44:43.059Z,2148
2018-01-27T08:45:43.300Z,2220
2018-01-27T08:46:43.221Z,2380
2018-01-27T08:47:43.345Z,2388
2018-01-27T08:48:42.870Z,2304
2018-01-27T08:49:58.067Z,2300
2018-01-27T08:50:43.386Z,2308
2018-01-27T08:51:43.572Z,2608
2018-01-27T08:52:43.385Z,2948
2018-01-27T08:53:43.459Z,3088
2018-01-27T08:54:43.236Z,3148
2018-01-27T08:55:43.499Z,3112
2018-01-27T08:56:43.524Z,3080
2018-01-27T08:57:43.422Z,3128
2018-01-27T08:58:43.540Z,3172
2018-01-27T08:59:43.291Z,3188
2018-01-27T09:00:43.594Z,3260
2018-01-27T09:01:58.272Z,3256
2018-01-27T09:02:43.789Z,3420
2018-01-27T09:03:43.782Z,3592
2018-01-27T09:04:43.149Z,3752
2018-01-27T09:05:58.439Z,3844
2018-01-27T09:06:43.196Z,3960
2018-01-27T09:07:43.714Z,4236
2018-01-27T09:08:43.723Z,4608
2018-01-27T09:09:43.743Z,4856
2018-01-27T09:10:43.646Z,5092
2018-01-27T09:11:43.776Z,5320
2018-01-27T09:12:43.565Z,5548
2018-01-27T09:13:43.575Z,5356
2018-01-27T09:14:43.585Z,5032
2018-01-27T09:15:43.872Z,5040
2018-01-27T09:16:43.874Z,5068
2018-01-27T09:17:43.982Z,5180
2018-01-27T09:18:58.596Z,5336
2018-01-27T09:19:43.926Z,5356
2018-01-27T09:20:43.978Z,5392
2018-01-27T09:21:58.773Z,5448
2018-01-27T09:22:58.304Z,5484
2018-01-27T09:23:43.998Z,5436
2018-01-27T09:24:43.507Z,5352
2018-01-27T09:25:44.185Z,5196
2018-01-27T09:26:44.161Z,5120
2018-01-27T09:27:43.819Z,4924
2018-01-27T09:28:44.228Z,4732
2018-01-27T09:29:44.099Z,4552
2018-01-27T09:30:44.140Z,4488
2018-01-27T09:31:44.303Z,4332
2018-01-27T09:32:44.165Z,4396
2018-01-27T09:33:44.352Z,4496
2018-01-27T09:34:44.194Z,4500
2018-01-27T09:35:43.962Z,4616
2018-01-27T09:36:43.972Z,4692
2018-01-27T09:37:58.663Z,4864
2018-01-27T09:38:44.287Z,4976
2018-01-27T09:39:43.797Z,4988
2018-01-27T09:40:43.942Z,4932
2018-01-27T09:41:44.317Z,4776
2018-01-27T09:42:44.176Z,4608
2018-01-27T09:43:44.113Z,4252
2018-01-27T09:44:44.539Z,3988
2018-01-27T09:45:58.991Z,3724
2018-01-27T09:46:59.250Z,3560
2018-01-27T09:47:44.492Z,3468
2018-01-27T09:48:44.455Z,3316
2018-01-27T09:49:44.248Z,3316
2018-01-27T09:50:44.491Z,3404
2018-01-27T09:51:44.533Z,3516
2018-01-27T09:52:59.381Z,3716
2018-01-27T09:53:59.234Z,3680
2018-01-27T09:54:44.584Z,3484
2018-01-27T09:55:44.356Z,3416
2018-01-27T09:56:44.359Z,3480
2018-01-27T09:57:44.624Z,3792
2018-01-27T09:58:44.538Z,3932
2018-01-27T09:59:44.665Z,3796
2018-01-27T10:00:44.679Z,3668
2018-01-27T10:01:59.373Z,3644
2018-01-27T10:02:44.468Z,3740
2018-01-27T10:03:45.031Z,3888
2018-01-27T10:04:44.663Z,3992
2018-01-27T10:05:44.522Z,4048
2018-01-27T10:06:44.532Z,4136
2018-01-27T10:07:44.829Z,4280
2018-01-27T10:08:44.850Z,4404
2018-01-27T10:09:44.753Z,4488
2018-01-27T10:10:44.966Z,4588
2018-01-27T10:11:59.574Z,4660
2018-01-27T10:12:59.578Z,4840
2018-01-27T10:13:44.671Z,5032
2018-01-27T10:14:44.844Z,5192
2018-01-27T10:15:44.869Z,5220
2018-01-27T10:16:59.638Z,5100
2018-01-27T10:17:45.017Z,4876
2018-01-27T10:18:45.047Z,4792
2018-01-27T10:19:59.703Z,4840
2018-01-27T10:20:44.782Z,4944
2018-01-27T10:21:45.220Z,5016
2018-01-27T10:22:45.263Z,4996
2018-01-27T10:23:44.868Z,5076
2018-01-27T10:24:59.779Z,5256
2018-01-27T10:26:45.075Z,5424
2018-01-27T10:27:44.690Z,5412
2018-01-27T10:28:45.205Z,5344
2018-01-27T10:29:45.203Z,5476
2018-01-27T10:30:45.247Z,5672
2018-01-27T10:31:45.439Z,5776
2018-01-27T10:32:45.288Z,5840
2018-01-27T10:33:45.291Z,5756
2018-01-27T10:34:45.337Z,5628
2018-01-27T10:35:45.082Z,5588
2018-01-27T10:36:45.520Z,5560
2018-01-27T10:38:00.206Z,5496
2018-01-27T10:38:45.390Z,5412
2018-01-27T10:39:45.423Z,5336
2018-01-27T10:41:00.103Z,5192
2018-01-27T10:41:45.559Z,5208
2018-01-27T10:42:45.343Z,5328
2018-01-27T10:44:00.262Z,5516
2018-01-27T10:44:45.258Z,5568
2018-01-27T10:45:45.695Z,5624
2018-01-27T10:46:45.286Z,5680
2018-01-27T10:47:45.560Z,5756
2018-01-27T10:48:45.314Z,5868
2018-01-27T10:49:45.862Z,5944
2018-01-27T10:50:45.497Z,5984
2018-01-27T10:51:45.640Z,6080
2018-01-27T10:52:45.649Z,6448
2018-01-27T10:53:45.682Z,6236
2018-01-27T10:54:45.345Z,6212
2018-01-27T10:55:45.883Z,6404
2018-01-27T10:57:00.542Z,5948
2018-01-27T10:57:45.762Z,5616
2018-01-27T10:58:45.906Z,4836
2018-01-27T10:59:45.791Z,4144
2018-01-27T11:00:45.936Z,3584
2018-01-27T11:01:45.565Z,3132
2018-01-27T11:03:00.524Z,2700
2018-01-27T11:03:45.606Z,2504
2018-01-27T11:05:45.750Z,2164
2018-01-27T11:07:45.418Z,1920
2018-01-27T11:08:45.455Z,1812
2018-01-27T11:10:46.002Z,1736
2018-01-27T11:11:45.901Z,1728
2018-01-27T11:13:00.715Z,1732
2018-01-27T11:13:46.269Z,1744
2018-01-27T11:14:46.224Z,1736
2018-01-27T11:15:45.811Z,1780
2018-01-27T11:16:45.857Z,1836
2018-01-27T11:17:46.029Z,1764
2018-01-27T11:18:46.128Z,1688
2018-01-27T11:19:46.347Z,1656
2018-01-27T11:20:46.160Z,1616
2018-01-27T11:21:46.212Z,1584
2018-01-27T11:22:46.361Z,1608
2018-01-27T11:24:00.652Z,1672
2018-01-27T11:24:46.402Z,1712
2018-01-27T11:25:46.288Z,1716
2018-01-27T11:26:46.023Z,1668
2018-01-27T11:28:01.152Z,1632
2018-01-27T11:28:46.105Z,1616
2018-01-27T11:29:46.084Z,1604
2018-01-27T11:30:46.274Z,1564
2018-01-27T11:31:46.128Z,1536
2018-01-27T11:32:46.414Z,1508
2018-01-27T11:33:46.404Z,1452
2018-01-27T11:34:46.445Z,1432
2018-01-27T11:35:46.307Z,1396
2018-01-27T11:36:46.375Z,1324
2018-01-27T11:37:46.506Z,1248
2018-01-27T11:38:46.569Z,1228
2018-01-27T11:39:46.544Z,1232
2018-01-27T11:40:46.549Z,1224
2018-01-27T11:41:46.473Z,1212
2018-01-27T11:42:46.323Z,1208
2018-01-27T11:43:46.614Z,1248
2018-01-27T11:44:46.616Z,1268
2018-01-27T11:45:46.748Z,1276
2018-01-27T11:46:46.818Z,1272
2018-01-27T11:49:46.436Z,1260
2018-01-27T11:50:46.874Z,1256
2018-01-27T11:51:46.883Z,1236
2018-01-27T11:53:01.187Z,1216
2018-01-27T11:53:46.937Z,1220
2018-01-27T11:54:46.558Z,1268
2018-01-27T11:55:46.677Z,1304
2018-01-27T11:57:01.497Z,1364
2018-01-27T11:57:46.861Z,1376
2018-01-27T11:58:47.168Z,1416
2018-01-27T12:00:01.593Z,1436
2018-01-27T12:01:01.473Z,1428
2018-01-27T12:01:46.926Z,1420
2018-01-27T12:03:01.366Z,1376
2018-01-27T12:03:46.877Z,1348
2018-01-27T12:04:46.982Z,1308
2018-01-27T12:06:01.824Z,1288
2018-01-27T12:06:47.035Z,1292
2018-01-27T12:07:46.776Z,1300
2018-01-27T12:08:47.114Z,1300
2018-01-27T12:09:46.562Z,1304
2018-01-27T12:11:01.518Z,1308
2018-01-27T12:11:47.103Z,1328
2018-01-27T12:12:46.628Z,1344
2018-01-27T12:13:47.144Z,1344
2018-01-27T12:15:01.808Z,1352
2018-01-27T12:16:01.597Z,1348
2018-01-27T12:16:46.925Z,1352
2018-01-27T12:17:47.210Z,1384
2018-01-27T12:18:47.254Z,1444
2018-01-27T12:19:47.243Z,1496
2018-01-27T12:20:47.257Z,1548
2018-01-27T12:22:02.115Z,1556
2018-01-27T12:22:47.293Z,1544
2018-01-27T12:23:47.325Z,1528
2018-01-27T12:24:47.538Z,1544
2018-01-27T12:25:47.374Z,1556
2018-01-27T12:26:47.383Z,1584
2018-01-27T12:28:47.172Z,1592
2018-01-27T12:29:47.349Z,1588
2018-01-27T12:30:47.459Z,1604
2018-01-27T12:32:02.291Z,1588
2018-01-27T12:32:47.238Z,1564
2018-01-27T12:33:47.640Z,1540
2018-01-27T12:34:47.518Z,1524
2018-01-27T12:35:47.415Z,1516
2018-01-27T12:36:47.551Z,1508
2018-01-27T12:37:47.712Z,1536
2018-01-27T12:38:47.323Z,1548
2018-01-27T12:39:47.607Z,1548
2018-01-27T12:41:02.200Z,1520
2018-01-27T12:41:47.650Z,1536
2018-01-27T12:44:02.110Z,1604
2018-01-27T12:44:47.575Z,1556
2018-01-27T12:45:47.461Z,1564
2018-01-27T12:46:47.901Z,1644
2018-01-27T12:48:02.442Z,1680
2018-01-27T12:48:47.788Z,1668
2018-01-27T12:50:47.932Z,1604
2018-01-27T12:51:48.132Z,1552
2018-01-27T12:52:47.995Z,1552
2018-01-27T12:53:47.859Z,1548
2018-01-27T12:54:47.908Z,1564
2018-01-27T12:55:47.901Z,1576
2018-01-27T12:56:48.219Z,1568
2018-01-27T12:57:47.678Z,1560
2018-01-27T12:58:47.920Z,1576
2018-01-27T12:59:47.725Z,1632
2018-01-27T13:00:47.712Z,1728
2018-01-27T13:01:48.142Z,1776
2018-01-27T13:03:02.853Z,1844
2018-01-27T13:03:47.786Z,1888
2018-01-27T13:04:48.068Z,1996
2018-01-27T13:05:48.075Z,2128
2018-01-27T13:06:48.192Z,2252
2018-01-27T13:07:48.163Z,2556
2018-01-27T13:08:47.870Z,2724
2018-01-27T13:10:02.578Z,3556
2018-01-27T13:10:48.359Z,3364
2018-01-27T13:12:48.218Z,3536
2018-01-27T13:14:02.889Z,3628
2018-01-27T13:15:48.416Z,3768
2018-01-27T13:16:48.268Z,4028
2018-01-27T13:17:48.310Z,3960
2018-01-27T13:18:48.306Z,4112
2018-01-27T13:20:03.009Z,4376
2018-01-27T13:21:03.172Z,4528
2018-01-27T13:21:48.102Z,3988
2018-01-27T13:22:48.029Z,4744
2018-01-27T13:24:03.166Z,4900
2018-01-27T13:24:47.918Z,5068
2018-01-27T13:25:48.470Z,4612
2018-01-27T13:26:48.616Z,4624
2018-01-27T13:27:48.600Z,4220
2018-01-27T13:28:48.352Z,3940
2018-01-27T13:29:48.019Z,3748
2018-01-27T13:30:48.537Z,3652
2018-01-27T13:31:48.536Z,3548
2018-01-27T13:32:48.425Z,3412
2018-01-27T13:33:48.432Z,3292
2018-01-27T13:35:17.943Z,3164
2018-01-27T13:35:48.637Z,3108
2018-01-27T13:36:48.640Z,3036
2018-01-27T13:37:48.520Z,2996
2018-01-27T13:39:48.710Z,2892
2018-01-27T13:40:48.837Z,2812
2018-01-27T13:42:03.398Z,2684
2018-01-27T13:42:48.761Z,2668
2018-01-27T13:43:48.927Z,2640
2018-01-27T13:46:03.481Z,2664
2018-01-27T13:46:48.936Z,2688
2018-01-27T13:47:48.342Z,2660
2018-01-27T13:48:49.023Z,2624
2018-01-27T13:51:49.014Z,2668
2018-01-27T13:52:48.692Z,2696
2018-01-27T13:53:48.969Z,2792
2018-01-27T13:54:48.714Z,2952
2018-01-27T13:56:49.121Z,2980
2018-01-27T13:57:48.933Z,3104
2018-01-27T13:58:48.799Z,3384
2018-01-27T13:59:49.206Z,3724
2018-01-27T14:00:49.084Z,3576
2018-01-27T14:01:48.828Z,3688
2018-01-27T14:02:48.773Z,3384
2018-01-27T14:03:48.730Z,3052
2018-01-27T14:04:48.932Z,3004
2018-01-27T14:05:49.273Z,3328
2018-01-27T14:07:03.858Z,3312
2018-01-27T14:07:49.275Z,3244
2018-01-27T14:08:49.237Z,3260
2018-01-27T14:09:49.251Z,3232
2018-01-27T14:10:49.295Z,3228
2018-01-27T14:11:49.325Z,3060
2018-01-27T14:12:49.438Z,3060
2018-01-27T14:13:49.345Z,3068
2018-01-27T14:14:49.342Z,3080
2018-01-27T14:15:49.378Z,3028
2018-01-27T14:16:49.285Z,3004
2018-01-27T14:17:49.240Z,2508
2018-01-27T14:18:49.423Z,2392
2018-01-27T14:20:04.107Z,2332
2018-01-27T14:20:49.444Z,2308
2018-01-27T14:21:49.239Z,2288
2018-01-27T14:23:04.168Z,2272
2018-01-27T14:23:49.665Z,2256
2018-01-27T14:24:49.544Z,2224
2018-01-27T14:25:49.564Z,2352
2018-01-27T14:27:04.395Z,2160
2018-01-27T14:27:49.582Z,2128
2018-01-27T14:28:49.752Z,2092
2018-01-27T14:29:49.613Z,2052
2018-01-27T14:31:49.785Z,1968
2018-01-27T14:33:04.331Z,1924
2018-01-27T14:33:49.580Z,1900
2018-01-27T14:34:49.438Z,1860
2018-01-27T14:35:49.470Z,1836
2018-01-27T14:36:49.647Z,1804
2018-01-27T14:38:04.436Z,1752
2018-01-27T14:38:49.834Z,1724
2018-01-27T14:39:49.854Z,1708
2018-01-27T14:40:49.815Z,1736